METAR Data
IDs: Format: Raw Decoded Include TAF

Data at: 1259 UTC 25 Nov 2020

PGUA 251203Z 09016KT 10SM SCT017 SCT022 BKN031 27/24 A2989 RMK AO2A SLP112 $